Time,TemperatureF,DewpointF,PressureIn,WindDirection,WindDirectionDegrees,WindSpeedMPH,WindSpeedGustMPH,Humidity,HourlyPrecipIn,Conditions,Clouds,dailyrainin,SoftwareType,DateUTC
2013-03-03 00:02:00,40.0,-99.9,29.62,NNW,348,6.0,8.0,-999,-99.99,,,-99.99,,2013-03-03 00:02:00,
2013-03-03 00:11:00,40.0,-99.9,29.62,NW,316,9.0,11.0,-999,-99.99,,,-99.99,,2013-03-03 00:11:00,
2013-03-03 00:23:00,40.0,-99.9,29.62,North,358,6.0,9.0,-999,-99.99,,,-99.99,,2013-03-03 00:23:00,
2013-03-03 00:32:00,40.0,-99.9,29.62,NNW,342,6.0,11.0,-999,-99.99,,,-99.99,,2013-03-03 00:32:00,
2013-03-03 00:42:00,40.0,-99.9,29.62,NW,323,7.0,11.0,-999,-99.99,,,-99.99,,2013-03-03 00:42:00,
2013-03-03 00:53:00,40.0,-99.9,29.62,NNW,348,7.0,11.0,-999,-99.99,,,-99.99,,2013-03-03 00:53:00,
2013-03-03 01:01:00,40.0,-99.9,29.62,North,349,5.0,10.0,-999,-99.99,,,-99.99,,2013-03-03 01:01:00,
2013-03-03 01:11:00,40.0,-99.9,29.62,North,8,10.0,14.0,-999,-99.99,,,-99.99,,2013-03-03 01:11:00,
2013-03-03 01:22:00,40.0,-99.9,29.63,North,3,6.0,10.0,-999,-99.99,,,-99.99,,2013-03-03 01:22:00,
2013-03-03 01:32:00,40.0,-99.9,29.63,NNE,29,7.0,11.0,-999,-99.99,,,-99.99,,2013-03-03 01:32:00,
2013-03-03 01:42:00,39.0,-99.9,29.63,NNE,30,6.0,10.0,-999,-99.99,,,-99.99,,2013-03-03 01:42:00,
2013-03-03 01:52:00,39.0,-99.9,29.63,North,4,6.0,10.0,-999,-99.99,,,-99.99,,2013-03-03 01:52:00,
2013-03-03 02:01:00,40.0,-99.9,29.63,NNW,345,6.0,8.0,-999,-99.99,,,-99.99,,2013-03-03 02:01:00,
2013-03-03 02:11:00,40.0,-99.9,29.63,North,2,7.0,9.0,-999,-99.99,,,-99.99,,2013-03-03 02:11:00,
2013-03-03 02:22:00,40.0,-99.9,29.63,North,10,8.0,11.0,-999,-99.99,,,-99.99,,2013-03-03 02:22:00,
2013-03-03 02:32:00,39.0,-99.9,29.63,North,359,10.0,13.0,-999,-99.99,,,-99.99,,2013-03-03 02:32:00,
2013-03-03 02:42:00,39.0,-99.9,29.63,NNE,29,7.0,10.0,-999,-99.99,,,-99.99,,2013-03-03 02:42:00,
2013-03-03 02:52:00,39.0,-99.9,29.62,NNE,33,5.0,9.0,-999,-99.99,,,-99.99,,2013-03-03 02:52:00,
2013-03-03 03:02:00,39.0,-99.9,29.62,NNE,14,6.0,7.0,-999,-99.99,,,-99.99,,2013-03-03 03:02:00,
2013-03-03 03:11:00,39.0,-99.9,29.62,NNE,19,6.0,9.0,-999,-99.99,,,-99.99,,2013-03-03 03:11:00,
2013-03-03 03:22:00,39.0,-99.9,29.62,NNE,16,8.0,11.0,-999,-99.99,,,-99.99,,2013-03-03 03:22:00,
2013-03-03 03:32:00,39.0,-99.9,29.62,NNE,12,5.0,8.0,-999,-99.99,,,-99.99,,2013-03-03 03:32:00,
2013-03-03 03:42:00,39.0,-99.9,29.62,North,355,9.0,13.0,-999,-99.99,,,-99.99,,2013-03-03 03:42:00,
2013-03-03 03:52:00,39.0,-99.9,29.61,NNW,348,8.0,11.0,-999,-99.99,,,-99.99,,2013-03-03 03:52:00,
2013-03-03 04:01:00,38.0,-99.9,29.61,North,357,12.0,15.0,-999,-99.99,,,-99.99,,2013-03-03 04:01:00,
2013-03-03 04:11:00,38.0,-99.9,29.61,North,352,10.0,14.0,-999,-99.99,,,-99.99,,2013-03-03 04:11:00,
2013-03-03 04:22:00,38.0,-99.9,29.61,North,2,11.0,15.0,-999,-99.99,,,-99.99,,2013-03-03 04:22:00,
2013-03-03 04:32:00,38.0,-99.9,29.61,North,360,10.0,17.0,-999,-99.99,,,-99.99,,2013-03-03 04:32:00,
2013-03-03 04:42:00,37.0,-99.9,29.61,North,-999,11.0,15.0,-999,-99.99,,,-99.99,,2013-03-03 04:42:00,
2013-03-03 04:52:00,37.0,-99.9,29.61,North,353,11.0,15.0,-999,-99.99,,,-99.99,,2013-03-03 04:52:00,
2013-03-03 05:02:00,37.0,-99.9,29.61,NNW,344,10.0,16.0,-999,-99.99,,,-99.99,,2013-03-03 05:02:00,
2013-03-03 05:12:00,37.0,-99.9,29.61,North,1,13.0,17.0,-999,-99.99,,,-99.99,,2013-03-03 05:12:00,
2013-03-03 05:22:00,37.0,-99.9,29.61,North,352,8.0,13.0,-999,-99.99,,,-99.99,,2013-03-03 05:22:00,
2013-03-03 05:32:00,37.0,-99.9,29.61,NNE,12,10.0,13.0,-999,-99.99,,,-99.99,,2013-03-03 05:32:00,
2013-03-03 05:42:00,36.0,-99.9,29.61,North,10,9.0,14.0,-999,-99.99,,,-99.99,,2013-03-03 05:42:00,
2013-03-03 05:52:00,36.0,-99.9,29.61,North,9,9.0,11.0,-999,-99.99,,,-99.99,,2013-03-03 05:52:00,
2013-03-03 06:02:00,36.0,-99.9,29.61,North,358,6.0,13.0,-999,-99.99,,,-99.99,,2013-03-03 06:02:00,
2013-03-03 06:11:00,36.0,-99.9,29.61,North,358,7.0,15.0,-999,-99.99,,,-99.99,,2013-03-03 06:11:00,
2013-03-03 06:22:00,36.0,-99.9,29.62,North,349,8.0,11.0,-999,-99.99,,,-99.99,,2013-03-03 06:22:00,
2013-03-03 06:32:00,36.0,-99.9,29.62,NNW,343,8.0,11.0,-999,-99.99,,,-99.99,,2013-03-03 06:32:00,
2013-03-03 06:42:00,35.0,-99.9,29.62,North,352,9.0,12.0,-999,-99.99,,,-99.99,,2013-03-03 06:42:00,
2013-03-03 06:52:00,35.0,-99.9,29.62,North,353,9.0,13.0,-999,-99.99,,,-99.99,,2013-03-03 06:52:00,
2013-03-03 07:01:00,35.0,-99.9,29.61,North,349,6.0,12.0,-999,-99.99,,,-99.99,,2013-03-03 07:01:00,
2013-03-03 07:11:00,35.0,-99.9,29.61,NNW,343,10.0,13.0,-999,-99.99,,,-99.99,,2013-03-03 07:11:00,
2013-03-03 07:22:00,35.0,-99.9,29.61,North,350,9.0,13.0,-999,-99.99,,,-99.99,,2013-03-03 07:22:00,
2013-03-03 07:32:00,35.0,-99.9,29.61,North,351,9.0,12.0,-999,-99.99,,,-99.99,,2013-03-03 07:32:00,
2013-03-03 07:42:00,35.0,-99.9,29.60,North,355,8.0,11.0,-999,-99.99,,,-99.99,,2013-03-03 07:42:00,
2013-03-03 07:52:00,35.0,-99.9,29.60,North,349,8.0,11.0,-999,-99.99,,,-99.99,,2013-03-03 07:52:00,
2013-03-03 08:01:00,35.0,-99.9,29.60,NNW,344,8.0,13.0,-999,-99.99,,,-99.99,,2013-03-03 08:01:00,
2013-03-03 08:11:00,35.0,-99.9,29.60,North,349,9.0,13.0,-999,-99.99,,,-99.99,,2013-03-03 08:11:00,
2013-03-03 08:21:00,35.0,-99.9,29.59,North,351,9.0,13.0,-999,-99.99,,,-99.99,,2013-03-03 08:21:00,
2013-03-03 08:32:00,35.0,-99.9,29.60,North,355,7.0,12.0,-999,-99.99,,,-99.99,,2013-03-03 08:32:00,
2013-03-03 08:42:00,35.0,-99.9,29.60,North,357,6.0,11.0,-999,-99.99,,,-99.99,,2013-03-03 08:42:00,
2013-03-03 08:54:00,35.0,-99.9,29.60,NNW,340,8.0,12.0,-999,-99.99,,,-99.99,,2013-03-03 08:54:00,
2013-03-03 09:02:00,34.0,-99.9,29.60,North,352,10.0,14.0,-999,-99.99,,,-99.99,,2013-03-03 09:02:00,
2013-03-03 09:12:00,34.0,-99.9,29.60,North,352,8.0,11.0,-999,-99.99,,,-99.99,,2013-03-03 09:12:00,
2013-03-03 09:22:00,34.0,-99.9,29.60,NNW,342,10.0,14.0,-999,-99.99,,,-99.99,,2013-03-03 09:22:00,
2013-03-03 09:32:00,34.0,-99.9,29.60,North,351,9.0,14.0,-999,-99.99,,,-99.99,,2013-03-03 09:32:00,
2013-03-03 09:42:00,34.0,-99.9,29.60,NNW,343,10.0,14.0,-999,-99.99,,,-99.99,,2013-03-03 09:42:00,
2013-03-03 09:52:00,34.0,-99.9,29.60,North,349,10.0,14.0,-999,-99.99,,,-99.99,,2013-03-03 09:52:00,
2013-03-03 10:01:00,34.0,-99.9,29.60,North,356,10.0,13.0,-999,-99.99,,,-99.99,,2013-03-03 10:01:00,
2013-03-03 10:12:00,34.0,-99.9,29.60,North,4,6.0,11.0,-999,-99.99,,,-99.99,,2013-03-03 10:12:00,
2013-03-03 10:22:00,34.0,-99.9,29.60,NNW,344,9.0,13.0,-999,-99.99,,,-99.99,,2013-03-03 10:22:00,
2013-03-03 10:32:00,34.0,-99.9,29.60,North,358,11.0,15.0,-999,-99.99,,,-99.99,,2013-03-03 10:32:00,
2013-03-03 10:42:00,34.0,-99.9,29.60,North,352,4.0,8.0,-999,-99.99,,,-99.99,,2013-03-03 10:42:00,
2013-03-03 10:52:00,33.0,-99.9,29.60,North,353,9.0,13.0,-999,-99.99,,,-99.99,,2013-03-03 10:52:00,
2013-03-03 11:02:00,34.0,-99.9,29.60,North,2,7.0,13.0,-999,-99.99,,,-99.99,,2013-03-03 11:02:00,
2013-03-03 11:11:00,33.0,-99.9,29.60,North,4,11.0,12.0,-999,-99.99,,,-99.99,,2013-03-03 11:11:00,
2013-03-03 11:22:00,33.0,-99.9,29.61,NNW,346,5.0,11.0,-999,-99.99,,,-99.99,,2013-03-03 11:22:00,
2013-03-03 11:32:00,33.0,-99.9,29.60,North,355,10.0,12.0,-999,-99.99,,,-99.99,,2013-03-03 11:32:00,
2013-03-03 11:42:00,33.0,-99.9,29.60,NNW,346,11.0,14.0,-999,-99.99,,,-99.99,,2013-03-03 11:42:00,
2013-03-03 11:53:00,33.0,-99.9,29.61,North,349,8.0,11.0,-999,-99.99,,,-99.99,,2013-03-03 11:53:00,
2013-03-03 12:02:00,33.0,-99.9,29.61,NNW,347,8.0,11.0,-999,-99.99,,,-99.99,,2013-03-03 12:02:00,
2013-03-03 12:11:00,33.0,-99.9,29.61,North,349,8.0,11.0,-999,-99.99,,,-99.99,,2013-03-03 12:11:00,
2013-03-03 12:22:00,33.0,-99.9,29.61,North,349,9.0,11.0,-999,-99.99,,,-99.99,,2013-03-03 12:22:00,
2013-03-03 12:32:00,33.0,-99.9,29.61,North,351,6.0,10.0,-999,-99.99,,,-99.99,,2013-03-03 12:32:00,
2013-03-03 12:43:00,33.0,-99.9,29.61,NNW,343,5.0,11.0,-999,-99.99,,,-99.99,,2013-03-03 12:43:00,
2013-03-03 12:53:00,33.0,-99.9,29.62,North,356,6.0,9.0,-999,-99.99,,,-99.99,,2013-03-03 12:53:00,
2013-03-03 13:02:00,33.0,-99.9,29.62,NNW,346,9.0,13.0,-999,-99.99,,,-99.99,,2013-03-03 13:02:00,
2013-03-03 13:11:00,33.0,-99.9,29.62,North,359,6.0,11.0,-999,-99.99,,,-99.99,,2013-03-03 13:11:00,
2013-03-03 13:22:00,33.0,-99.9,29.62,NW,316,10.0,12.0,-999,-99.99,,,-99.99,,2013-03-03 13:22:00,
2013-03-03 13:32:00,33.0,-99.9,29.62,NW,326,7.0,11.0,-999,-99.99,,,-99.99,,2013-03-03 13:32:00,
2013-03-03 13:42:00,33.0,-99.9,29.61,North,356,9.0,12.0,-999,-99.99,,,-99.99,,2013-03-03 13:42:00,
2013-03-03 13:52:00,34.0,-99.9,29.61,NNW,348,6.0,9.0,-999,-99.99,,,-99.99,,2013-03-03 13:52:00,
2013-03-03 14:02:00,34.0,-99.9,29.62,NNW,332,6.0,9.0,-999,-99.99,,,-99.99,,2013-03-03 14:02:00,
2013-03-03 14:11:00,34.0,-99.9,29.61,North,360,7.0,11.0,-999,-99.99,,,-99.99,,2013-03-03 14:11:00,
2013-03-03 14:22:00,34.0,-99.9,29.61,NNW,338,4.0,12.0,-999,-99.99,,,-99.99,,2013-03-03 14:22:00,
2013-03-03 14:32:00,34.0,-99.9,29.61,NNW,329,8.0,10.0,-999,-99.99,,,-99.99,,2013-03-03 14:32:00,
2013-03-03 14:42:00,34.0,-99.9,29.61,North,3,9.0,12.0,-999,-99.99,,,-99.99,,2013-03-03 14:42:00,
2013-03-03 14:52:00,35.0,-99.9,29.61,North,357,8.0,12.0,-999,-99.99,,,-99.99,,2013-03-03 14:52:00,
2013-03-03 15:02:00,35.0,-99.9,29.60,North,5,9.0,13.0,-999,-99.99,,,-99.99,,2013-03-03 15:02:00,
2013-03-03 15:11:00,35.0,-99.9,29.60,NW,318,7.0,11.0,-999,-99.99,,,-99.99,,2013-03-03 15:11:00,
2013-03-03 15:22:00,35.0,-99.9,29.60,North,353,10.0,12.0,-999,-99.99,,,-99.99,,2013-03-03 15:22:00,
2013-03-03 15:33:00,35.0,-99.9,29.60,North,356,8.0,11.0,-999,-99.99,,,-99.99,,2013-03-03 15:33:00,
2013-03-03 15:42:00,36.0,-99.9,29.59,NNW,341,6.0,9.0,-999,-99.99,,,-99.99,,2013-03-03 15:42:00,
2013-03-03 15:52:00,36.0,-99.9,29.59,NNW,336,5.0,11.0,-999,-99.99,,,-99.99,,2013-03-03 15:52:00,
2013-03-03 16:02:00,37.0,-99.9,29.59,NW,317,4.0,8.0,-999,-99.99,,,-99.99,,2013-03-03 16:02:00,
2013-03-03 16:12:00,37.0,-99.9,29.59,NNW,339,6.0,8.0,-999,-99.99,,,-99.99,,2013-03-03 16:12:00,
2013-03-03 16:22:00,37.0,-99.9,29.58,North,357,7.0,10.0,-999,-99.99,,,-99.99,,2013-03-03 16:22:00,
2013-03-03 16:32:00,37.0,-99.9,29.58,NNW,346,4.0,6.0,-999,-99.99,,,-99.99,,2013-03-03 16:32:00,
2013-03-03 16:42:00,38.0,-99.9,29.58,NNW,342,6.0,8.0,-999,-99.99,,,-99.99,,2013-03-03 16:42:00,
2013-03-03 16:52:00,39.0,-99.9,29.58,North,4,5.0,8.0,-999,-99.99,,,-99.99,,2013-03-03 16:52:00,
2013-03-03 17:01:00,40.0,-99.9,29.57,NNE,14,3.0,8.0,-999,-99.99,,,-99.99,,2013-03-03 17:01:00,
2013-03-03 17:12:00,40.0,-99.9,29.57,NW,321,5.0,9.0,-999,-99.99,,,-99.99,,2013-03-03 17:12:00,
2013-03-03 17:22:00,40.0,-99.9,29.57,West,266,6.0,10.0,-999,-99.99,,,-99.99,,2013-03-03 17:22:00,
2013-03-03 17:32:00,40.0,-99.9,29.57,SW,236,6.0,11.0,-999,-99.99,,,-99.99,,2013-03-03 17:32:00,
2013-03-03 17:42:00,40.0,-99.9,29.56,North,9,8.0,10.0,-999,-99.99,,,-99.99,,2013-03-03 17:42:00,
2013-03-03 17:52:00,41.0,-99.9,29.55,NNW,345,5.0,10.0,-999,-99.99,,,-99.99,,2013-03-03 17:52:00,
2013-03-03 18:02:00,41.0,-99.9,29.55,NW,316,5.0,8.0,-999,-99.99,,,-99.99,,2013-03-03 18:02:00,
2013-03-03 18:11:00,42.0,-99.9,29.55,North,3,6.0,10.0,-999,-99.99,,,-99.99,,2013-03-03 18:11:00,
2013-03-03 18:22:00,42.0,-99.9,29.54,WNW,300,2.0,9.0,-999,-99.99,,,-99.99,,2013-03-03 18:22:00,
2013-03-03 18:32:00,42.0,-99.9,29.54,NNW,340,5.0,9.0,-999,-99.99,,,-99.99,,2013-03-03 18:32:00,
2013-03-03 18:42:00,43.0,-99.9,29.54,WNW,292,2.0,6.0,-999,-99.99,,,-99.99,,2013-03-03 18:42:00,
2013-03-03 18:53:00,43.0,-99.9,29.53,West,274,5.0,8.0,-999,-99.99,,,-99.99,,2013-03-03 18:53:00,
2013-03-03 19:02:00,42.0,-99.9,29.53,West,269,5.0,12.0,-999,-99.99,,,-99.99,,2013-03-03 19:02:00,
2013-03-03 19:11:00,43.0,-99.9,29.53,WNW,296,5.0,13.0,-999,-99.99,,,-99.99,,2013-03-03 19:11:00,
2013-03-03 19:22:00,43.0,-99.9,29.53,North,8,9.0,11.0,-999,-99.99,,,-99.99,,2013-03-03 19:22:00,
2013-03-03 19:32:00,42.0,-99.9,29.53,NNW,337,6.0,10.0,-999,-99.99,,,-99.99,,2013-03-03 19:32:00,
2013-03-03 19:42:00,42.0,-99.9,29.53,North,-999,10.0,13.0,-999,-99.99,,,-99.99,,2013-03-03 19:42:00,
2013-03-03 19:52:00,42.0,-99.9,29.53,North,352,8.0,11.0,-999,-99.99,,,-99.99,,2013-03-03 19:52:00,
2013-03-03 20:02:00,42.0,-99.9,29.53,North,2,9.0,12.0,-999,-99.99,,,-99.99,,2013-03-03 20:02:00,
2013-03-03 20:12:00,42.0,-99.9,29.53,NNE,17,8.0,12.0,-999,-99.99,,,-99.99,,2013-03-03 20:12:00,
2013-03-03 20:22:00,42.0,-99.9,29.53,North,355,9.0,15.0,-999,-99.99,,,-99.99,,2013-03-03 20:22:00,
2013-03-03 20:32:00,42.0,-99.9,29.53,NW,309,7.0,11.0,-999,-99.99,,,-99.99,,2013-03-03 20:32:00,
2013-03-03 20:43:00,42.0,-99.9,29.53,WNW,303,10.0,13.0,-999,-99.99,,,-99.99,,2013-03-03 20:43:00,
2013-03-03 20:53:00,42.0,-99.9,29.53,NNW,347,9.0,13.0,-999,-99.99,,,-99.99,,2013-03-03 20:53:00,
2013-03-03 21:02:00,41.0,-99.9,29.53,North,4,11.0,15.0,-999,-99.99,,,-99.99,,2013-03-03 21:02:00,
2013-03-03 21:12:00,41.0,-99.9,29.53,North,1,10.0,15.0,-999,-99.99,,,-99.99,,2013-03-03 21:12:00,
2013-03-03 21:22:00,42.0,-99.9,29.53,NNW,337,7.0,11.0,-999,-99.99,,,-99.99,,2013-03-03 21:22:00,
2013-03-03 21:32:00,41.0,-99.9,29.53,North,351,8.0,13.0,-999,-99.99,,,-99.99,,2013-03-03 21:32:00,
2013-03-03 21:42:00,41.0,-99.9,29.54,North,6,7.0,12.0,-999,-99.99,,,-99.99,,2013-03-03 21:42:00,
2013-03-03 21:52:00,41.0,-99.9,29.54,NNW,343,11.0,15.0,-999,-99.99,,,-99.99,,2013-03-03 21:52:00,
2013-03-03 22:02:00,41.0,-99.9,29.54,NW,322,12.0,16.0,-999,-99.99,,,-99.99,,2013-03-03 22:02:00,
2013-03-03 22:11:00,41.0,-99.9,29.54,North,359,12.0,16.0,-999,-99.99,,,-99.99,,2013-03-03 22:11:00,
2013-03-03 22:22:00,40.0,-99.9,29.54,North,355,8.0,14.0,-999,-99.99,,,-99.99,,2013-03-03 22:22:00,
2013-03-03 22:32:00,40.0,-99.9,29.54,NW,316,12.0,16.0,-999,-99.99,,,-99.99,,2013-03-03 22:32:00,
2013-03-03 22:42:00,39.0,-99.9,29.54,NW,323,14.0,20.0,-999,-99.99,,,-99.99,,2013-03-03 22:42:00,
2013-03-03 22:53:00,39.0,-99.9,29.55,NNW,330,9.0,17.0,-999,-99.99,,,-99.99,,2013-03-03 22:53:00,
2013-03-03 23:02:00,38.0,-99.9,29.55,North,350,9.0,15.0,-999,-99.99,,,-99.99,,2013-03-03 23:02:00,
2013-03-03 23:11:00,38.0,-99.9,29.55,North,354,13.0,17.0,-999,-99.99,,,-99.99,,2013-03-03 23:11:00,
2013-03-03 23:22:00,38.0,-99.9,29.56,North,-999,11.0,20.0,-999,-99.99,,,-99.99,,2013-03-03 23:22:00,
2013-03-03 23:32:00,38.0,-99.9,29.56,North,359,10.0,13.0,-999,-99.99,,,-99.99,,2013-03-03 23:32:00,
2013-03-03 23:42:00,38.0,-99.9,29.56,North,351,11.0,19.0,-999,-99.99,,,-99.99,,2013-03-03 23:42:00,
2013-03-03 23:52:00,37.0,-99.9,29.56,North,349,11.0,18.0,-999,-99.99,,,-99.99,,2013-03-03 23:52:00,